sensor_id;sensor_type;location;lat;lon;timestamp;temperature;humidity
9666;DHT22;4871;52.004;5.924;2023-07-09T00:00:00;25.1;50.7
9666;DHT22;4871;52.004;5.924;2023-07-09T00:01:00;25.0;50.6
9666;DHT22;4871;52.004;5.924;2023-07-09T00:02:00;25.0;50.6
9666;DHT22;4871;52.004;5.924;2023-07-09T00:03:00;25.0;50.5
9666;DHT22;4871;52.004;5.924;2023-07-09T00:04:00;25.0;50.6
9666;DHT22;4871;52.004;5.924;2023-07-09T00:05:00;25.0;50.8
9666;DHT22;4871;52.004;5.924;2023-07-09T00:06:00;25.0;50.6
9666;DHT22;4871;52.004;5.924;2023-07-09T00:07:02;25.0;50.9
9666;DHT22;4871;52.004;5.924;2023-07-09T00:08:00;24.9;50.9
9666;DHT22;4871;52.004;5.924;2023-07-09T00:09:00;24.9;50.8
9666;DHT22;4871;52.004;5.924;2023-07-09T00:10:00;24.9;50.7
9666;DHT22;4871;52.004;5.924;2023-07-09T00:11:00;24.9;50.7
9666;DHT22;4871;52.004;5.924;2023-07-09T00:12:00;24.9;50.9
9666;DHT22;4871;52.004;5.924;2023-07-09T00:13:00;24.9;50.8
9666;DHT22;4871;52.004;5.924;2023-07-09T00:14:00;24.9;50.8
9666;DHT22;4871;52.004;5.924;2023-07-09T00:15:00;24.9;50.9
9666;DHT22;4871;52.004;5.924;2023-07-09T00:16:03;24.9;50.7
9666;DHT22;4871;52.004;5.924;2023-07-09T00:17:01;24.8;50.8
9666;DHT22;4871;52.004;5.924;2023-07-09T00:18:00;24.8;50.6
9666;DHT22;4871;52.004;5.924;2023-07-09T00:19:02;24.8;50.7
9666;DHT22;4871;52.004;5.924;2023-07-09T00:20:00;24.8;51.0
9666;DHT22;4871;52.004;5.924;2023-07-09T00:21:01;24.8;50.9
9666;DHT22;4871;52.004;5.924;2023-07-09T00:22:00;24.8;50.9
9666;DHT22;4871;52.004;5.924;2023-07-09T00:23:00;24.8;50.5
9666;DHT22;4871;52.004;5.924;2023-07-09T00:24:05;24.8;50.8
9666;DHT22;4871;52.004;5.924;2023-07-09T00:25:01;24.8;51.0
9666;DHT22;4871;52.004;5.924;2023-07-09T00:26:06;24.8;50.9
9666;DHT22;4871;52.004;5.924;2023-07-09T00:27:00;24.7;50.7
9666;DHT22;4871;52.004;5.924;2023-07-09T00:28:00;24.7;51.0
9666;DHT22;4871;52.004;5.924;2023-07-09T00:29:00;24.7;50.9
9666;DHT22;4871;52.004;5.924;2023-07-09T00:30:00;24.7;51.0
9666;DHT22;4871;52.004;5.924;2023-07-09T00:31:00;24.7;51.0
9666;DHT22;4871;52.004;5.924;2023-07-09T00:32:00;24.7;51.0
9666;DHT22;4871;52.004;5.924;2023-07-09T00:33:01;24.7;51.1
9666;DHT22;4871;52.004;5.924;2023-07-09T00:34:00;24.7;51.0
9666;DHT22;4871;52.004;5.924;2023-07-09T00:35:05;24.7;51.1
9666;DHT22;4871;52.004;5.924;2023-07-09T00:36:00;24.7;51.1
9666;DHT22;4871;52.004;5.924;2023-07-09T00:37:00;24.7;50.6
9666;DHT22;4871;52.004;5.924;2023-07-09T00:38:00;24.6;51.2
9666;DHT22;4871;52.004;5.924;2023-07-09T00:39:04;24.6;51.1
9666;DHT22;4871;52.004;5.924;2023-07-09T00:40:00;24.6;50.8
9666;DHT22;4871;52.004;5.924;2023-07-09T00:41:02;24.6;51.1
9666;DHT22;4871;52.004;5.924;2023-07-09T00:42:00;24.6;50.8
9666;DHT22;4871;52.004;5.924;2023-07-09T00:43:00;24.6;51.0
9666;DHT22;4871;52.004;5.924;2023-07-09T00:44:25;24.6;51.4
9666;DHT22;4871;52.004;5.924;2023-07-09T00:45:00;24.6;51.4
9666;DHT22;4871;52.004;5.924;2023-07-09T00:46:16;24.6;51.1
9666;DHT22;4871;52.004;5.924;2023-07-09T00:47:22;24.5;51.1
9666;DHT22;4871;52.004;5.924;2023-07-09T00:48:01;24.5;51.1
9666;DHT22;4871;52.004;5.924;2023-07-09T00:49:02;24.5;51.4
9666;DHT22;4871;52.004;5.924;2023-07-09T00:50:07;24.5;51.3
9666;DHT22;4871;52.004;5.924;2023-07-09T00:51:00;24.5;51.4
9666;DHT22;4871;52.004;5.924;2023-07-09T00:52:18;24.5;51.4
9666;DHT22;4871;52.004;5.924;2023-07-09T00:53:08;24.5;51.4
9666;DHT22;4871;52.004;5.924;2023-07-09T00:54:03;24.5;51.2
9666;DHT22;4871;52.004;5.924;2023-07-09T00:55:03;24.4;51.2
9666;DHT22;4871;52.004;5.924;2023-07-09T00:56:03;24.4;51.3
9666;DHT22;4871;52.004;5.924;2023-07-09T00:57:05;24.4;51.4
9666;DHT22;4871;52.004;5.924;2023-07-09T00:58:03;24.4;51.5
9666;DHT22;4871;52.004;5.924;2023-07-09T00:59:04;24.4;51.3
9666;DHT22;4871;52.004;5.924;2023-07-09T01:00:05;24.4;51.6
9666;DHT22;4871;52.004;5.924;2023-07-09T01:01:02;24.4;51.4
9666;DHT22;4871;52.004;5.924;2023-07-09T01:02:00;24.4;51.4
9666;DHT22;4871;52.004;5.924;2023-07-09T01:03:04;24.3;51.5
9666;DHT22;4871;52.004;5.924;2023-07-09T01:04:02;24.3;51.6
9666;DHT22;4871;52.004;5.924;2023-07-09T01:05:01;24.3;51.4
9666;DHT22;4871;52.004;5.924;2023-07-09T01:06:00;24.3;51.1
9666;DHT22;4871;52.004;5.924;2023-07-09T01:07:00;24.3;51.4
9666;DHT22;4871;52.004;5.924;2023-07-09T01:08:00;24.4;51.1
9666;DHT22;4871;52.004;5.924;2023-07-09T01:09:01;24.3;51.4
9666;DHT22;4871;52.004;5.924;2023-07-09T01:10:00;24.3;51.4
9666;DHT22;4871;52.004;5.924;2023-07-09T01:11:00;24.3;51.2
9666;DHT22;4871;52.004;5.924;2023-07-09T01:12:02;24.3;51.3
9666;DHT22;4871;52.004;5.924;2023-07-09T01:13:01;24.3;51.3
9666;DHT22;4871;52.004;5.924;2023-07-09T01:14:03;24.3;51.2
9666;DHT22;4871;52.004;5.924;2023-07-09T01:15:00;24.3;51.2
9666;DHT22;4871;52.004;5.924;2023-07-09T01:16:00;24.3;51.3
9666;DHT22;4871;52.004;5.924;2023-07-09T01:17:02;24.3;51.4
9666;DHT22;4871;52.004;5.924;2023-07-09T01:18:00;24.2;51.4
9666;DHT22;4871;52.004;5.924;2023-07-09T01:19:00;24.2;51.3
9666;DHT22;4871;52.004;5.924;2023-07-09T01:20:00;24.2;51.1
9666;DHT22;4871;52.004;5.924;2023-07-09T01:21:03;24.2;51.1
9666;DHT22;4871;52.004;5.924;2023-07-09T01:22:01;24.2;51.3
9666;DHT22;4871;52.004;5.924;2023-07-09T01:23:00;24.2;51.4
9666;DHT22;4871;52.004;5.924;2023-07-09T01:24:10;24.2;51.2
9666;DHT22;4871;52.004;5.924;2023-07-09T01:25:03;24.2;51.2
9666;DHT22;4871;52.004;5.924;2023-07-09T01:26:00;24.2;51.3
9666;DHT22;4871;52.004;5.924;2023-07-09T01:27:01;24.2;51.1
9666;DHT22;4871;52.004;5.924;2023-07-09T01:28:00;24.2;51.4
9666;DHT22;4871;52.004;5.924;2023-07-09T01:29:01;24.2;51.1
9666;DHT22;4871;52.004;5.924;2023-07-09T01:30:04;24.2;51.1
9666;DHT22;4871;52.004;5.924;2023-07-09T01:31:00;24.2;51.4
9666;DHT22;4871;52.004;5.924;2023-07-09T01:32:00;24.1;51.4
9666;DHT22;4871;52.004;5.924;2023-07-09T01:33:01;24.1;51.5
9666;DHT22;4871;52.004;5.924;2023-07-09T01:34:00;24.1;51.3
9666;DHT22;4871;52.004;5.924;2023-07-09T01:35:06;24.1;51.6
9666;DHT22;4871;52.004;5.924;2023-07-09T01:36:00;24.1;51.4
9666;DHT22;4871;52.004;5.924;2023-07-09T01:37:00;24.1;51.2
9666;DHT22;4871;52.004;5.924;2023-07-09T01:38:01;24.1;51.2
9666;DHT22;4871;52.004;5.924;2023-07-09T01:39:00;24.1;51.3
9666;DHT22;4871;52.004;5.924;2023-07-09T01:40:00;24.1;51.3
9666;DHT22;4871;52.004;5.924;2023-07-09T01:41:00;24.1;51.2
9666;DHT22;4871;52.004;5.924;2023-07-09T01:42:00;24.1;51.2
9666;DHT22;4871;52.004;5.924;2023-07-09T01:43:02;24.0;51.1
9666;DHT22;4871;52.004;5.924;2023-07-09T01:44:00;24.0;51.3
9666;DHT22;4871;52.004;5.924;2023-07-09T01:45:02;24.0;51.4
9666;DHT22;4871;52.004;5.924;2023-07-09T01:46:00;24.0;51.1
9666;DHT22;4871;52.004;5.924;2023-07-09T01:47:04;24.1;51.3
9666;DHT22;4871;52.004;5.924;2023-07-09T01:48:01;24.0;51.1
9666;DHT22;4871;52.004;5.924;2023-07-09T01:49:00;24.0;51.1
9666;DHT22;4871;52.004;5.924;2023-07-09T01:50:00;24.0;51.4
9666;DHT22;4871;52.004;5.924;2023-07-09T01:51:02;24.0;51.5
9666;DHT22;4871;52.004;5.924;2023-07-09T01:52:02;24.0;51.4
9666;DHT22;4871;52.004;5.924;2023-07-09T01:53:00;23.9;51.7
9666;DHT22;4871;52.004;5.924;2023-07-09T01:54:00;23.9;51.5
9666;DHT22;4871;52.004;5.924;2023-07-09T01:55:00;23.9;51.4
9666;DHT22;4871;52.004;5.924;2023-07-09T01:56:00;23.9;51.6
9666;DHT22;4871;52.004;5.924;2023-07-09T01:57:14;23.9;51.5
9666;DHT22;4871;52.004;5.924;2023-07-09T01:58:00;23.9;51.5
9666;DHT22;4871;52.004;5.924;2023-07-09T01:59:01;23.9;51.5
9666;DHT22;4871;52.004;5.924;2023-07-09T02:00:03;23.9;51.2
9666;DHT22;4871;52.004;5.924;2023-07-09T02:01:00;23.9;51.5
9666;DHT22;4871;52.004;5.924;2023-07-09T02:02:01;23.9;51.5
9666;DHT22;4871;52.004;5.924;2023-07-09T02:03:02;23.9;51.3
9666;DHT22;4871;52.004;5.924;2023-07-09T02:04:00;23.8;51.5
9666;DHT22;4871;52.004;5.924;2023-07-09T02:05:01;23.9;51.3
9666;DHT22;4871;52.004;5.924;2023-07-09T02:06:02;23.8;51.5
9666;DHT22;4871;52.004;5.924;2023-07-09T02:07:00;23.8;51.7
9666;DHT22;4871;52.004;5.924;2023-07-09T02:08:00;23.8;51.3
9666;DHT22;4871;52.004;5.924;2023-07-09T02:09:00;23.8;51.7
9666;DHT22;4871;52.004;5.924;2023-07-09T02:10:00;23.8;51.4
9666;DHT22;4871;52.004;5.924;2023-07-09T02:11:00;23.8;51.7
9666;DHT22;4871;52.004;5.924;2023-07-09T02:12:03;23.8;51.4
9666;DHT22;4871;52.004;5.924;2023-07-09T02:13:00;23.8;51.5
9666;DHT22;4871;52.004;5.924;2023-07-09T02:14:00;23.8;51.6
9666;DHT22;4871;52.004;5.924;2023-07-09T02:15:00;23.8;51.8
9666;DHT22;4871;52.004;5.924;2023-07-09T02:16:00;23.8;51.6
9666;DHT22;4871;52.004;5.924;2023-07-09T02:17:00;23.7;51.8
9666;DHT22;4871;52.004;5.924;2023-07-09T02:18:01;23.7;51.6
9666;DHT22;4871;52.004;5.924;2023-07-09T02:19:00;23.7;51.9
9666;DHT22;4871;52.004;5.924;2023-07-09T02:20:00;23.7;51.5
9666;DHT22;4871;52.004;5.924;2023-07-09T02:21:00;23.7;52.0
9666;DHT22;4871;52.004;5.924;2023-07-09T02:22:00;23.7;51.7
9666;DHT22;4871;52.004;5.924;2023-07-09T02:23:00;23.6;51.8
9666;DHT22;4871;52.004;5.924;2023-07-09T02:24:00;23.7;51.9
9666;DHT22;4871;52.004;5.924;2023-07-09T02:25:00;23.6;51.8
9666;DHT22;4871;52.004;5.924;2023-07-09T02:26:00;23.6;51.9
9666;DHT22;4871;52.004;5.924;2023-07-09T02:27:02;23.6;52.3
9666;DHT22;4871;52.004;5.924;2023-07-09T02:28:00;23.6;52.1
9666;DHT22;4871;52.004;5.924;2023-07-09T02:29:00;23.6;52.0
9666;DHT22;4871;52.004;5.924;2023-07-09T02:30:00;23.6;51.9
9666;DHT22;4871;52.004;5.924;2023-07-09T02:31:00;23.6;51.9
9666;DHT22;4871;52.004;5.924;2023-07-09T02:32:01;23.6;51.9
9666;DHT22;4871;52.004;5.924;2023-07-09T02:33:00;23.5;52.2
9666;DHT22;4871;52.004;5.924;2023-07-09T02:34:00;23.5;51.8
9666;DHT22;4871;52.004;5.924;2023-07-09T02:35:00;23.5;52.2
9666;DHT22;4871;52.004;5.924;2023-07-09T02:36:00;23.5;52.1
9666;DHT22;4871;52.004;5.924;2023-07-09T02:37:00;23.5;52.1
9666;DHT22;4871;52.004;5.924;2023-07-09T02:38:00;23.5;52.1
9666;DHT22;4871;52.004;5.924;2023-07-09T02:39:00;23.5;52.2
9666;DHT22;4871;52.004;5.924;2023-07-09T02:40:00;23.5;52.0
9666;DHT22;4871;52.004;5.924;2023-07-09T02:41:00;23.4;52.3
9666;DHT22;4871;52.004;5.924;2023-07-09T02:42:00;23.4;52.3
9666;DHT22;4871;52.004;5.924;2023-07-09T02:43:00;23.4;52.3
9666;DHT22;4871;52.004;5.924;2023-07-09T02:44:00;23.3;52.5
9666;DHT22;4871;52.004;5.924;2023-07-09T02:45:00;23.3;52.3
9666;DHT22;4871;52.004;5.924;2023-07-09T02:46:00;23.4;52.3
9666;DHT22;4871;52.004;5.924;2023-07-09T02:47:00;23.4;52.1
9666;DHT22;4871;52.004;5.924;2023-07-09T02:48:00;23.4;52.0
9666;DHT22;4871;52.004;5.924;2023-07-09T02:49:00;23.4;52.1
9666;DHT22;4871;52.004;5.924;2023-07-09T02:50:00;23.4;52.0
9666;DHT22;4871;52.004;5.924;2023-07-09T02:51:00;23.4;52.0
9666;DHT22;4871;52.004;5.924;2023-07-09T02:52:00;23.3;51.9
9666;DHT22;4871;52.004;5.924;2023-07-09T02:53:00;23.4;51.7
9666;DHT22;4871;52.004;5.924;2023-07-09T02:54:02;23.3;52.0
9666;DHT22;4871;52.004;5.924;2023-07-09T02:55:00;23.3;51.8
9666;DHT22;4871;52.004;5.924;2023-07-09T02:56:00;23.3;52.0
9666;DHT22;4871;52.004;5.924;2023-07-09T02:57:00;23.3;51.7
9666;DHT22;4871;52.004;5.924;2023-07-09T02:58:00;23.3;51.7
9666;DHT22;4871;52.004;5.924;2023-07-09T02:59:00;23.3;51.8
9666;DHT22;4871;52.004;5.924;2023-07-09T03:00:00;23.3;51.6
9666;DHT22;4871;52.004;5.924;2023-07-09T03:01:00;23.3;51.7
9666;DHT22;4871;52.004;5.924;2023-07-09T03:02:00;23.3;51.9
9666;DHT22;4871;52.004;5.924;2023-07-09T03:03:00;23.3;51.8
9666;DHT22;4871;52.004;5.924;2023-07-09T03:04:02;23.3;51.9
9666;DHT22;4871;52.004;5.924;2023-07-09T03:05:00;23.3;51.8
9666;DHT22;4871;52.004;5.924;2023-07-09T03:06:00;23.3;51.7
9666;DHT22;4871;52.004;5.924;2023-07-09T03:07:00;23.3;51.8
9666;DHT22;4871;52.004;5.924;2023-07-09T03:08:00;23.3;51.8
9666;DHT22;4871;52.004;5.924;2023-07-09T03:09:01;23.3;51.5
9666;DHT22;4871;52.004;5.924;2023-07-09T03:10:00;23.3;51.6
9666;DHT22;4871;52.004;5.924;2023-07-09T03:11:00;23.2;51.9
9666;DHT22;4871;52.004;5.924;2023-07-09T03:12:00;23.2;52.0
9666;DHT22;4871;52.004;5.924;2023-07-09T03:13:00;23.2;51.8
9666;DHT22;4871;52.004;5.924;2023-07-09T03:14:01;23.2;51.6
9666;DHT22;4871;52.004;5.924;2023-07-09T03:15:00;23.2;51.9
9666;DHT22;4871;52.004;5.924;2023-07-09T03:16:00;23.2;52.0
9666;DHT22;4871;52.004;5.924;2023-07-09T03:17:00;23.2;51.7
9666;DHT22;4871;52.004;5.924;2023-07-09T03:18:00;23.2;51.9
9666;DHT22;4871;52.004;5.924;2023-07-09T03:19:00;23.2;52.0
9666;DHT22;4871;52.004;5.924;2023-07-09T03:20:00;23.2;52.0
9666;DHT22;4871;52.004;5.924;2023-07-09T03:21:00;23.2;51.7
9666;DHT22;4871;52.004;5.924;2023-07-09T03:22:00;23.2;51.9
9666;DHT22;4871;52.004;5.924;2023-07-09T03:23:00;23.2;52.1
9666;DHT22;4871;52.004;5.924;2023-07-09T03:24:00;23.2;51.8
9666;DHT22;4871;52.004;5.924;2023-07-09T03:25:00;23.2;51.7
9666;DHT22;4871;52.004;5.924;2023-07-09T03:26:00;23.2;51.8
9666;DHT22;4871;52.004;5.924;2023-07-09T03:27:00;23.2;51.8
9666;DHT22;4871;52.004;5.924;2023-07-09T03:28:00;23.1;51.8
9666;DHT22;4871;52.004;5.924;2023-07-09T03:29:00;23.1;52.1
9666;DHT22;4871;52.004;5.924;2023-07-09T03:30:00;23.2;51.9
9666;DHT22;4871;52.004;5.924;2023-07-09T03:31:00;23.2;51.8
9666;DHT22;4871;52.004;5.924;2023-07-09T03:32:00;23.2;52.0
9666;DHT22;4871;52.004;5.924;2023-07-09T03:33:00;23.1;51.8
9666;DHT22;4871;52.004;5.924;2023-07-09T03:34:00;23.1;52.0
9666;DHT22;4871;52.004;5.924;2023-07-09T03:35:00;23.1;52.1
9666;DHT22;4871;52.004;5.924;2023-07-09T03:36:00;23.1;51.8
9666;DHT22;4871;52.004;5.924;2023-07-09T03:37:00;23.1;51.9
9666;DHT22;4871;52.004;5.924;2023-07-09T03:38:00;23.1;52.0
9666;DHT22;4871;52.004;5.924;2023-07-09T03:39:00;23.1;51.8
9666;DHT22;4871;52.004;5.924;2023-07-09T03:40:00;23.1;52.1
9666;DHT22;4871;52.004;5.924;2023-07-09T03:41:00;23.1;52.0
9666;DHT22;4871;52.004;5.924;2023-07-09T03:42:00;23.1;52.0
9666;DHT22;4871;52.004;5.924;2023-07-09T03:43:00;23.1;52.0
9666;DHT22;4871;52.004;5.924;2023-07-09T03:44:00;23.0;52.0
9666;DHT22;4871;52.004;5.924;2023-07-09T03:45:00;23.0;52.2
9666;DHT22;4871;52.004;5.924;2023-07-09T03:46:00;23.1;52.0
9666;DHT22;4871;52.004;5.924;2023-07-09T03:47:00;23.1;52.1
9666;DHT22;4871;52.004;5.924;2023-07-09T03:48:00;23.1;52.0
9666;DHT22;4871;52.004;5.924;2023-07-09T03:49:00;23.1;51.9
9666;DHT22;4871;52.004;5.924;2023-07-09T03:50:00;23.1;51.6
9666;DHT22;4871;52.004;5.924;2023-07-09T03:51:00;23.1;52.0
9666;DHT22;4871;52.004;5.924;2023-07-09T03:52:00;23.1;51.8
9666;DHT22;4871;52.004;5.924;2023-07-09T03:53:00;23.1;51.8
9666;DHT22;4871;52.004;5.924;2023-07-09T03:54:00;23.0;52.1
9666;DHT22;4871;52.004;5.924;2023-07-09T03:55:01;23.0;52.1
9666;DHT22;4871;52.004;5.924;2023-07-09T03:56:00;23.1;52.4
9666;DHT22;4871;52.004;5.924;2023-07-09T03:57:00;23.1;52.0
9666;DHT22;4871;52.004;5.924;2023-07-09T03:58:00;23.0;52.3
9666;DHT22;4871;52.004;5.924;2023-07-09T03:59:00;23.0;52.5
9666;DHT22;4871;52.004;5.924;2023-07-09T04:00:00;23.0;52.5
9666;DHT22;4871;52.004;5.924;2023-07-09T04:01:00;23.0;52.5
9666;DHT22;4871;52.004;5.924;2023-07-09T04:02:01;23.0;52.5
9666;DHT22;4871;52.004;5.924;2023-07-09T04:03:00;23.0;52.2
9666;DHT22;4871;52.004;5.924;2023-07-09T04:04:00;23.0;52.6
9666;DHT22;4871;52.004;5.924;2023-07-09T04:05:00;23.0;52.6
9666;DHT22;4871;52.004;5.924;2023-07-09T04:06:00;23.0;52.5
9666;DHT22;4871;52.004;5.924;2023-07-09T04:07:00;23.0;52.4
9666;DHT22;4871;52.004;5.924;2023-07-09T04:08:00;23.0;52.4
9666;DHT22;4871;52.004;5.924;2023-07-09T04:09:00;23.0;52.7
9666;DHT22;4871;52.004;5.924;2023-07-09T04:10:00;23.0;52.6
9666;DHT22;4871;52.004;5.924;2023-07-09T04:11:02;23.0;52.8
9666;DHT22;4871;52.004;5.924;2023-07-09T04:12:01;23.0;52.6
9666;DHT22;4871;52.004;5.924;2023-07-09T04:13:00;22.9;52.6
9666;DHT22;4871;52.004;5.924;2023-07-09T04:14:00;22.9;52.7
9666;DHT22;4871;52.004;5.924;2023-07-09T04:15:00;22.9;52.7
9666;DHT22;4871;52.004;5.924;2023-07-09T04:16:00;22.9;53.1
9666;DHT22;4871;52.004;5.924;2023-07-09T04:17:00;22.9;52.8
9666;DHT22;4871;52.004;5.924;2023-07-09T04:18:00;23.0;52.8
9666;DHT22;4871;52.004;5.924;2023-07-09T04:19:00;23.0;53.1
9666;DHT22;4871;52.004;5.924;2023-07-09T04:20:02;22.9;53.0
9666;DHT22;4871;52.004;5.924;2023-07-09T04:21:00;22.9;52.9
9666;DHT22;4871;52.004;5.924;2023-07-09T04:22:00;23.0;52.9
9666;DHT22;4871;52.004;5.924;2023-07-09T04:23:00;22.9;52.9
9666;DHT22;4871;52.004;5.924;2023-07-09T04:24:00;22.9;53.1
9666;DHT22;4871;52.004;5.924;2023-07-09T04:25:00;22.9;53.1
9666;DHT22;4871;52.004;5.924;2023-07-09T04:26:02;22.9;52.9
9666;DHT22;4871;52.004;5.924;2023-07-09T04:27:03;22.9;53.0
9666;DHT22;4871;52.004;5.924;2023-07-09T04:28:00;22.9;52.7
9666;DHT22;4871;52.004;5.924;2023-07-09T04:29:00;22.9;53.1
9666;DHT22;4871;52.004;5.924;2023-07-09T04:30:00;22.9;52.7
9666;DHT22;4871;52.004;5.924;2023-07-09T04:31:00;22.9;52.9
9666;DHT22;4871;52.004;5.924;2023-07-09T04:32:00;23.0;53.0
9666;DHT22;4871;52.004;5.924;2023-07-09T04:33:00;23.0;52.9
9666;DHT22;4871;52.004;5.924;2023-07-09T04:34:00;22.9;52.7
9666;DHT22;4871;52.004;5.924;2023-07-09T04:35:00;22.9;53.0
9666;DHT22;4871;52.004;5.924;2023-07-09T04:36:00;22.9;53.0
9666;DHT22;4871;52.004;5.924;2023-07-09T04:37:00;23.0;52.8
9666;DHT22;4871;52.004;5.924;2023-07-09T04:38:00;23.0;53.0
9666;DHT22;4871;52.004;5.924;2023-07-09T04:39:00;23.0;52.9
9666;DHT22;4871;52.004;5.924;2023-07-09T04:40:00;23.0;52.7
9666;DHT22;4871;52.004;5.924;2023-07-09T04:41:00;23.0;52.7
9666;DHT22;4871;52.004;5.924;2023-07-09T04:42:00;23.0;52.9
9666;DHT22;4871;52.004;5.924;2023-07-09T04:43:00;23.0;52.8
9666;DHT22;4871;52.004;5.924;2023-07-09T04:44:00;23.0;52.9
9666;DHT22;4871;52.004;5.924;2023-07-09T04:45:00;23.0;52.7
9666;DHT22;4871;52.004;5.924;2023-07-09T04:46:00;23.0;52.7
9666;DHT22;4871;52.004;5.924;2023-07-09T04:47:00;23.0;52.9
9666;DHT22;4871;52.004;5.924;2023-07-09T04:48:00;23.0;52.8
9666;DHT22;4871;52.004;5.924;2023-07-09T04:49:00;23.0;52.9
9666;DHT22;4871;52.004;5.924;2023-07-09T04:50:00;23.0;52.7
9666;DHT22;4871;52.004;5.924;2023-07-09T04:51:00;23.0;53.0
9666;DHT22;4871;52.004;5.924;2023-07-09T04:52:00;23.0;53.0
9666;DHT22;4871;52.004;5.924;2023-07-09T04:53:00;23.0;53.5
9666;DHT22;4871;52.004;5.924;2023-07-09T04:54:04;23.0;53.1
9666;DHT22;4871;52.004;5.924;2023-07-09T04:55:01;23.0;53.2
9666;DHT22;4871;52.004;5.924;2023-07-09T04:56:01;23.0;53.0
9666;DHT22;4871;52.004;5.924;2023-07-09T04:57:00;23.0;53.0
9666;DHT22;4871;52.004;5.924;2023-07-09T04:58:00;23.0;53.1
9666;DHT22;4871;52.004;5.924;2023-07-09T04:59:00;23.0;53.0
9666;DHT22;4871;52.004;5.924;2023-07-09T05:00:00;23.0;53.0
9666;DHT22;4871;52.004;5.924;2023-07-09T05:01:00;23.0;52.9
9666;DHT22;4871;52.004;5.924;2023-07-09T05:02:00;23.0;52.6
9666;DHT22;4871;52.004;5.924;2023-07-09T05:03:00;23.0;52.5
9666;DHT22;4871;52.004;5.924;2023-07-09T05:04:00;23.0;52.7
9666;DHT22;4871;52.004;5.924;2023-07-09T05:05:00;23.1;52.9
9666;DHT22;4871;52.004;5.924;2023-07-09T05:06:00;23.1;52.6
9666;DHT22;4871;52.004;5.924;2023-07-09T05:07:00;23.1;52.6
9666;DHT22;4871;52.004;5.924;2023-07-09T05:08:00;23.1;52.6
9666;DHT22;4871;52.004;5.924;2023-07-09T05:09:00;23.1;52.4
9666;DHT22;4871;52.004;5.924;2023-07-09T05:10:00;23.1;52.4
9666;DHT22;4871;52.004;5.924;2023-07-09T05:11:00;23.1;52.4
9666;DHT22;4871;52.004;5.924;2023-07-09T05:12:00;23.1;52.1
9666;DHT22;4871;52.004;5.924;2023-07-09T05:13:00;23.1;52.2
9666;DHT22;4871;52.004;5.924;2023-07-09T05:14:00;23.1;52.2
9666;DHT22;4871;52.004;5.924;2023-07-09T05:15:00;23.2;52.2
9666;DHT22;4871;52.004;5.924;2023-07-09T05:16:00;23.2;52.1
9666;DHT22;4871;52.004;5.924;2023-07-09T05:17:00;23.2;51.8
9666;DHT22;4871;52.004;5.924;2023-07-09T05:18:00;23.2;51.8
9666;DHT22;4871;52.004;5.924;2023-07-09T05:19:00;23.2;51.7
9666;DHT22;4871;52.004;5.924;2023-07-09T05:20:00;23.3;51.5
9666;DHT22;4871;52.004;5.924;2023-07-09T05:21:00;23.3;51.5
9666;DHT22;4871;52.004;5.924;2023-07-09T05:22:00;23.3;51.7
9666;DHT22;4871;52.004;5.924;2023-07-09T05:23:00;23.3;51.4
9666;DHT22;4871;52.004;5.924;2023-07-09T05:24:00;23.4;51.5
9666;DHT22;4871;52.004;5.924;2023-07-09T05:25:00;23.4;51.4
9666;DHT22;4871;52.004;5.924;2023-07-09T05:26:02;23.4;51.4
9666;DHT22;4871;52.004;5.924;2023-07-09T05:27:00;23.4;51.6
9666;DHT22;4871;52.004;5.924;2023-07-09T05:28:00;23.4;51.3
9666;DHT22;4871;52.004;5.924;2023-07-09T05:29:02;23.5;51.2
9666;DHT22;4871;52.004;5.924;2023-07-09T05:30:00;23.5;51.1
9666;DHT22;4871;52.004;5.924;2023-07-09T05:31:00;23.5;51.0
9666;DHT22;4871;52.004;5.924;2023-07-09T05:32:00;23.6;50.9
9666;DHT22;4871;52.004;5.924;2023-07-09T05:33:00;23.6;50.9
9666;DHT22;4871;52.004;5.924;2023-07-09T05:34:00;23.6;51.4
9666;DHT22;4871;52.004;5.924;2023-07-09T05:35:00;23.6;51.5
9666;DHT22;4871;52.004;5.924;2023-07-09T05:36:02;23.7;51.7
9666;DHT22;4871;52.004;5.924;2023-07-09T05:37:00;23.7;51.0
9666;DHT22;4871;52.004;5.924;2023-07-09T05:38:00;23.8;52.9
9666;DHT22;4871;52.004;5.924;2023-07-09T05:39:00;23.8;53.9
9666;DHT22;4871;52.004;5.924;2023-07-09T05:40:00;23.9;54.0
9666;DHT22;4871;52.004;5.924;2023-07-09T05:41:01;24.0;54.3
9666;DHT22;4871;52.004;5.924;2023-07-09T05:42:00;24.1;56.1
9666;DHT22;4871;52.004;5.924;2023-07-09T05:43:00;24.1;54.4
9666;DHT22;4871;52.004;5.924;2023-07-09T05:44:00;24.2;55.5
9666;DHT22;4871;52.004;5.924;2023-07-09T05:45:00;24.3;55.0
9666;DHT22;4871;52.004;5.924;2023-07-09T05:46:01;24.3;56.8
9666;DHT22;4871;52.004;5.924;2023-07-09T05:47:00;24.4;56.1
9666;DHT22;4871;52.004;5.924;2023-07-09T05:48:00;24.4;54.3
9666;DHT22;4871;52.004;5.924;2023-07-09T05:49:00;24.5;56.3
9666;DHT22;4871;52.004;5.924;2023-07-09T05:50:00;24.5;54.8
9666;DHT22;4871;52.004;5.924;2023-07-09T05:51:00;24.6;54.4
9666;DHT22;4871;52.004;5.924;2023-07-09T05:52:00;24.6;53.1
9666;DHT22;4871;52.004;5.924;2023-07-09T05:53:00;24.7;52.7
9666;DHT22;4871;52.004;5.924;2023-07-09T05:54:00;24.7;53.3
9666;DHT22;4871;52.004;5.924;2023-07-09T05:55:00;24.8;53.9
9666;DHT22;4871;52.004;5.924;2023-07-09T05:56:00;24.8;54.1
9666;DHT22;4871;52.004;5.924;2023-07-09T05:57:00;24.8;52.2
9666;DHT22;4871;52.004;5.924;2023-07-09T05:58:00;24.9;53.1
9666;DHT22;4871;52.004;5.924;2023-07-09T05:59:01;24.9;52.3
9666;DHT22;4871;52.004;5.924;2023-07-09T06:00:00;25.0;52.7
9666;DHT22;4871;52.004;5.924;2023-07-09T06:01:00;25.1;53.4
9666;DHT22;4871;52.004;5.924;2023-07-09T06:02:01;25.2;52.9
9666;DHT22;4871;52.004;5.924;2023-07-09T06:03:01;25.3;52.8
9666;DHT22;4871;52.004;5.924;2023-07-09T06:04:00;25.3;53.6
9666;DHT22;4871;52.004;5.924;2023-07-09T06:05:00;25.4;52.8
9666;DHT22;4871;52.004;5.924;2023-07-09T06:06:00;25.4;50.9
9666;DHT22;4871;52.004;5.924;2023-07-09T06:07:00;25.4;52.5
9666;DHT22;4871;52.004;5.924;2023-07-09T06:08:00;25.5;51.9
9666;DHT22;4871;52.004;5.924;2023-07-09T06:09:00;25.5;52.0
9666;DHT22;4871;52.004;5.924;2023-07-09T06:10:00;25.7;53.2
9666;DHT22;4871;52.004;5.924;2023-07-09T06:11:02;25.7;51.3
9666;DHT22;4871;52.004;5.924;2023-07-09T06:12:01;25.8;50.6
9666;DHT22;4871;52.004;5.924;2023-07-09T06:13:00;25.9;53.8
9666;DHT22;4871;52.004;5.924;2023-07-09T06:14:00;25.9;50.6
9666;DHT22;4871;52.004;5.924;2023-07-09T06:15:00;26.0;49.9
9666;DHT22;4871;52.004;5.924;2023-07-09T06:16:00;26.0;49.8
9666;DHT22;4871;52.004;5.924;2023-07-09T06:17:00;26.1;51.5
9666;DHT22;4871;52.004;5.924;2023-07-09T06:18:00;26.2;50.1
9666;DHT22;4871;52.004;5.924;2023-07-09T06:19:00;26.2;50.4
9666;DHT22;4871;52.004;5.924;2023-07-09T06:20:00;26.3;49.5
9666;DHT22;4871;52.004;5.924;2023-07-09T06:21:02;26.3;50.0
9666;DHT22;4871;52.004;5.924;2023-07-09T06:22:00;26.4;49.4
9666;DHT22;4871;52.004;5.924;2023-07-09T06:23:00;26.4;49.3
9666;DHT22;4871;52.004;5.924;2023-07-09T06:24:00;26.5;48.7
9666;DHT22;4871;52.004;5.924;2023-07-09T06:25:00;26.6;49.9
9666;DHT22;4871;52.004;5.924;2023-07-09T06:26:00;26.6;50.2
9666;DHT22;4871;52.004;5.924;2023-07-09T06:27:00;26.6;49.8
9666;DHT22;4871;52.004;5.924;2023-07-09T06:28:00;26.7;49.4
9666;DHT22;4871;52.004;5.924;2023-07-09T06:29:00;26.8;49.9
9666;DHT22;4871;52.004;5.924;2023-07-09T06:30:00;26.8;52.0
9666;DHT22;4871;52.004;5.924;2023-07-09T06:31:00;26.9;49.7
9666;DHT22;4871;52.004;5.924;2023-07-09T06:32:00;26.9;48.8
9666;DHT22;4871;52.004;5.924;2023-07-09T06:33:00;27.0;48.5
9666;DHT22;4871;52.004;5.924;2023-07-09T06:34:00;27.0;49.4
9666;DHT22;4871;52.004;5.924;2023-07-09T06:35:00;27.1;49.3
9666;DHT22;4871;52.004;5.924;2023-07-09T06:36:01;27.2;52.0
9666;DHT22;4871;52.004;5.924;2023-07-09T06:37:00;27.3;52.3
9666;DHT22;4871;52.004;5.924;2023-07-09T06:38:00;27.4;50.6
9666;DHT22;4871;52.004;5.924;2023-07-09T06:39:00;27.5;48.1
9666;DHT22;4871;52.004;5.924;2023-07-09T06:40:00;27.5;49.3
9666;DHT22;4871;52.004;5.924;2023-07-09T06:41:00;27.6;50.8
9666;DHT22;4871;52.004;5.924;2023-07-09T06:42:00;27.7;48.8
9666;DHT22;4871;52.004;5.924;2023-07-09T06:43:00;27.7;51.9
9666;DHT22;4871;52.004;5.924;2023-07-09T06:44:00;27.8;48.6